createdAt,value
2023-01-25T00:01:27.054Z,58.54
2023-01-25T00:06:29.200Z,58.20
2023-01-25T00:11:31.451Z,58.13
2023-01-25T00:16:33.728Z,57.88
2023-01-25T00:21:36.631Z,57.60
2023-01-25T00:26:39.324Z,57.52
2023-01-25T00:31:57.460Z,57.98
2023-01-25T00:37:03.824Z,57.61
2023-01-25T00:42:10.939Z,58.45
2023-01-25T00:47:13.850Z,58.40
2023-01-25T00:52:16.045Z,58.36
2023-01-25T00:57:18.136Z,57.98
2023-01-25T01:02:20.377Z,58.01
2023-01-25T01:07:22.515Z,57.56
2023-01-25T01:12:24.711Z,57.73
2023-01-25T01:17:26.959Z,58.36
2023-01-25T01:22:30.054Z,58.04
2023-01-25T01:27:32.243Z,57.29
2023-01-25T01:32:34.491Z,57.51
2023-01-25T01:37:37.605Z,57.83
2023-01-25T01:43:03.468Z,58.25
2023-01-25T01:48:16.909Z,58.21
2023-01-25T01:53:21.045Z,57.94
2023-01-25T01:58:23.612Z,57.33
2023-01-25T02:03:27.190Z,57.05
2023-01-25T02:08:33.697Z,57.97
2023-01-25T02:13:37.639Z,58.05
2023-01-25T02:18:40.826Z,58.14
2023-01-25T02:23:55.375Z,58.45
2023-01-25T02:29:06.262Z,57.72
2023-01-25T02:34:08.513Z,56.96
2023-01-25T02:39:20.148Z,57.32
2023-01-25T02:44:31.693Z,57.39
2023-01-25T02:49:37.719Z,56.84
2023-01-25T02:54:42.209Z,56.79
2023-01-25T02:59:44.336Z,56.93
2023-01-25T03:04:48.312Z,57.00
2023-01-25T03:09:50.471Z,57.02
2023-01-25T03:14:53.171Z,57.30
2023-01-25T03:19:55.629Z,57.01
2023-01-25T03:24:59.310Z,56.86
2023-01-25T03:30:01.747Z,57.04
2023-01-25T03:35:08.365Z,56.79
2023-01-25T03:40:11.457Z,57.14
2023-01-25T03:45:16.972Z,57.40
2023-01-25T03:50:19.224Z,57.58
2023-01-25T03:55:21.467Z,58.03
2023-01-25T04:00:24.339Z,58.24
2023-01-25T04:05:33.895Z,58.03
2023-01-25T04:10:36.185Z,58.08
2023-01-25T04:15:39.563Z,58.30
2023-01-25T04:20:54.038Z,58.31
2023-01-25T04:26:01.583Z,58.10
2023-01-25T04:31:06.271Z,58.06
2023-01-25T04:36:13.786Z,58.60
2023-01-25T04:41:16.237Z,58.53
2023-01-25T04:46:19.588Z,58.11
2023-01-25T04:51:21.810Z,58.57
2023-01-25T04:56:23.985Z,58.24
2023-01-25T05:01:29.642Z,58.66
2023-01-25T05:06:31.937Z,58.35
2023-01-25T05:11:34.250Z,58.27
2023-01-25T05:17:09.045Z,58.20
2023-01-25T05:22:16.253Z,58.57
2023-01-25T05:27:23.432Z,58.28
2023-01-25T05:32:45.824Z,58.26
2023-01-25T05:37:49.014Z,58.62
2023-01-25T05:42:58.087Z,58.00
2023-01-25T05:48:01.579Z,58.01
2023-01-25T05:53:04.783Z,57.99
2023-01-25T05:58:06.900Z,58.37
2023-01-25T06:03:09.257Z,58.18
2023-01-25T06:08:13.937Z,58.03
2023-01-25T06:13:22.927Z,58.29
2023-01-25T06:18:25.182Z,58.21
2023-01-25T06:23:54.227Z,58.02
2023-01-25T06:28:56.320Z,58.05
2023-01-25T06:34:01.099Z,57.57
2023-01-25T06:39:03.718Z,57.87
2023-01-25T06:44:05.940Z,57.33
2023-01-25T06:49:08.106Z,57.77
2023-01-25T06:54:10.455Z,58.34
2023-01-25T06:59:13.265Z,57.62
2023-01-25T07:04:15.344Z,57.78
2023-01-25T07:09:23.791Z,57.68
2023-01-25T07:14:26.407Z,57.70
2023-01-25T07:19:28.514Z,57.66
2023-01-25T07:24:30.703Z,57.54
2023-01-25T07:29:32.723Z,57.69
2023-01-25T07:34:35.724Z,57.54
2023-01-25T07:39:37.955Z,57.11
2023-01-25T07:44:40.091Z,57.31
2023-01-25T07:49:46.869Z,56.75
2023-01-25T07:54:50.090Z,56.67
2023-01-25T07:59:52.237Z,56.66
2023-01-25T08:04:55.045Z,56.69
2023-01-25T08:09:57.173Z,56.56
2023-01-25T08:14:59.263Z,56.53
2023-01-25T08:20:01.742Z,57.18
2023-01-25T08:25:05.747Z,57.34
2023-01-25T08:30:08.760Z,57.46
2023-01-25T08:35:11.391Z,57.58
2023-01-25T08:40:16.286Z,57.67
2023-01-25T08:45:19.301Z,57.56
2023-01-25T08:50:21.447Z,57.75
2023-01-25T08:55:23.563Z,57.60
2023-01-25T09:00:25.724Z,57.62
2023-01-25T09:05:27.882Z,57.18
2023-01-25T09:10:30.057Z,57.31
2023-01-25T09:15:32.288Z,57.75
2023-01-25T09:20:34.781Z,56.86
2023-01-25T09:25:37.022Z,56.97
2023-01-25T09:30:47.331Z,56.50
2023-01-25T09:36:01.908Z,57.10
2023-01-25T09:41:19.169Z,56.96
2023-01-25T09:46:55.257Z,56.84
2023-01-25T09:52:30.812Z,57.22
2023-01-25T09:57:37.503Z,57.57
2023-01-25T10:02:45.548Z,57.16
2023-01-25T10:08:11.902Z,57.68
2023-01-25T10:13:22.853Z,57.96
2023-01-25T10:18:33.920Z,57.94
2023-01-25T10:24:12.789Z,57.42
2023-01-25T10:29:23.730Z,57.30
2023-01-25T10:34:55.108Z,57.68
2023-01-25T10:40:14.661Z,57.98
2023-01-25T10:45:17.862Z,58.34
2023-01-25T10:50:50.556Z,58.02
2023-01-25T10:56:00.616Z,58.35
2023-01-25T11:01:07.088Z,58.65
2023-01-25T11:06:09.672Z,59.12
2023-01-25T11:11:14.691Z,58.87
2023-01-25T11:16:27.890Z,58.68
2023-01-25T11:21:34.915Z,58.77
2023-01-25T11:26:41.320Z,58.33
2023-01-25T11:31:46.408Z,58.38
2023-01-25T11:37:08.754Z,58.38
2023-01-25T11:42:32.226Z,58.88
2023-01-25T11:48:06.424Z,58.29
2023-01-25T11:53:33.472Z,58.38
2023-01-25T11:58:51.621Z,58.55
2023-01-25T12:04:37.103Z,58.05
2023-01-25T12:10:01.184Z,57.96
2023-01-25T12:15:09.285Z,57.53
2023-01-25T12:21:00.867Z,57.22
2023-01-25T12:26:27.834Z,57.38
2023-01-25T12:32:05.116Z,57.36
2023-01-25T12:37:18.547Z,56.25
2023-01-25T12:42:26.565Z,56.09
2023-01-25T12:47:40.780Z,56.56
2023-01-25T12:52:52.657Z,55.75
2023-01-25T12:57:57.603Z,56.30
2023-01-25T13:03:07.914Z,55.97
2023-01-25T13:08:35.265Z,55.88
2023-01-25T13:13:37.398Z,55.46
2023-01-25T13:18:40.982Z,55.49
2023-01-25T13:23:47.406Z,55.43
2023-01-25T13:28:54.803Z,55.59
2023-01-25T13:33:57.616Z,55.63
2023-01-25T13:38:59.749Z,56.22
2023-01-25T13:44:29.653Z,56.57
2023-01-25T13:49:42.124Z,57.08
2023-01-25T13:54:45.576Z,57.22
2023-01-25T13:59:50.695Z,57.46
2023-01-25T14:04:53.418Z,57.78
2023-01-25T14:09:57.166Z,57.91
2023-01-25T14:15:25.538Z,58.11
2023-01-25T14:20:27.603Z,58.04
2023-01-25T14:25:29.789Z,58.43
2023-01-25T14:30:34.264Z,58.68
2023-01-25T14:36:05.772Z,58.75
2023-01-25T14:41:16.858Z,58.64
2023-01-25T14:46:22.043Z,58.88
2023-01-25T14:51:28.862Z,58.74
2023-01-25T14:56:46.420Z,59.35
2023-01-25T15:01:51.447Z,59.09
2023-01-25T15:06:57.394Z,58.86
2023-01-25T15:12:22.967Z,59.07
2023-01-25T15:17:43.571Z,58.74
2023-01-25T15:22:45.701Z,59.16
2023-01-25T15:27:48.030Z,59.35
2023-01-25T15:32:50.285Z,59.09
2023-01-25T15:37:52.374Z,59.52
2023-01-25T15:42:55.785Z,59.39
2023-01-25T15:47:59.439Z,59.17
2023-01-25T15:53:01.437Z,59.79
2023-01-25T15:58:05.239Z,59.96
2023-01-25T16:03:07.923Z,59.80
2023-01-25T16:08:17.955Z,60.28
2023-01-25T16:13:22.111Z,60.23
2023-01-25T16:18:24.202Z,60.74
2023-01-25T16:23:26.266Z,60.60
2023-01-25T16:28:29.386Z,60.83
2023-01-25T16:33:31.644Z,60.89
2023-01-25T16:38:33.748Z,61.07
2023-01-25T16:43:42.721Z,60.95
2023-01-25T16:48:47.062Z,60.99
2023-01-25T16:53:51.736Z,60.69
2023-01-25T16:58:55.864Z,60.48
2023-01-25T17:03:58.431Z,61.28
2023-01-25T17:09:12.601Z,61.53
2023-01-25T17:14:23.663Z,61.72
2023-01-25T17:19:25.803Z,61.45
2023-01-25T17:24:29.141Z,61.60
2023-01-25T17:29:31.497Z,61.91
2023-01-25T17:34:33.560Z,62.03
2023-01-25T17:39:35.658Z,61.80
2023-01-25T17:44:37.721Z,61.69
2023-01-25T17:49:39.770Z,61.54
2023-01-25T17:54:41.808Z,61.50
2023-01-25T17:59:43.883Z,61.60
2023-01-25T18:04:45.972Z,61.88
2023-01-25T18:09:48.083Z,61.46
2023-01-25T18:14:50.179Z,62.07
2023-01-25T18:19:52.279Z,62.06
2023-01-25T18:24:54.398Z,61.83
2023-01-25T18:30:23.901Z,62.19
2023-01-25T18:35:25.971Z,62.11
2023-01-25T18:40:29.974Z,61.93
2023-01-25T18:45:32.029Z,62.02
2023-01-25T18:50:34.206Z,61.52
2023-01-25T18:55:37.454Z,61.80
2023-01-25T19:00:39.511Z,61.93
2023-01-25T19:05:41.568Z,61.59
2023-01-25T19:10:43.604Z,61.34
2023-01-25T19:15:45.668Z,61.32
2023-01-25T19:20:47.753Z,61.34
2023-01-25T19:25:56.371Z,61.31
2023-01-25T19:31:07.118Z,61.61
2023-01-25T19:36:15.601Z,61.64
2023-01-25T19:41:20.680Z,61.36
2023-01-25T19:46:25.765Z,61.22
2023-01-25T19:51:30.621Z,61.44
2023-01-25T19:56:39.064Z,61.66
2023-01-25T20:01:44.102Z,61.37
2023-01-25T20:06:46.758Z,61.25
2023-01-25T20:11:48.890Z,61.49
2023-01-25T20:16:52.923Z,61.99
2023-01-25T20:21:55.133Z,61.41
2023-01-25T20:26:58.879Z,61.67
2023-01-25T20:32:03.370Z,62.17
2023-01-25T20:37:05.626Z,62.15
2023-01-25T20:42:07.837Z,61.73
2023-01-25T20:47:10.310Z,61.62
2023-01-25T20:52:13.937Z,61.48
2023-01-25T20:57:16.078Z,61.76
2023-01-25T21:02:18.281Z,61.54
2023-01-25T21:07:20.464Z,61.56
2023-01-25T21:12:22.604Z,61.35
2023-01-25T21:17:24.742Z,61.70
2023-01-25T21:22:30.168Z,61.17
2023-01-25T21:27:32.325Z,61.27
2023-01-25T21:32:34.351Z,61.37
2023-01-25T21:37:36.595Z,61.42
2023-01-25T21:42:38.699Z,61.20
2023-01-25T21:47:40.820Z,61.33
2023-01-25T21:52:43.035Z,61.14
2023-01-25T21:57:47.313Z,61.39
2023-01-25T22:02:51.346Z,61.63
2023-01-25T22:07:53.708Z,61.51
2023-01-25T22:12:55.968Z,61.53
2023-01-25T22:17:58.217Z,61.42
2023-01-25T22:23:00.376Z,61.59
2023-01-25T22:28:04.361Z,61.72
2023-01-25T22:33:06.544Z,61.57
2023-01-25T22:38:08.662Z,61.40
2023-01-25T22:43:10.762Z,61.50
2023-01-25T22:48:12.832Z,61.31
2023-01-25T22:53:15.015Z,61.75
2023-01-25T22:58:17.174Z,61.26
2023-01-25T23:03:19.227Z,61.13
2023-01-25T23:08:21.293Z,61.06
2023-01-25T23:13:23.487Z,60.70
2023-01-25T23:18:44.285Z,60.66
2023-01-25T23:23:46.931Z,61.07
2023-01-25T23:28:54.127Z,61.01
2023-01-25T23:33:59.676Z,60.93
2023-01-25T23:39:02.336Z,61.06
2023-01-25T23:44:04.588Z,61.06
2023-01-25T23:49:06.678Z,60.79
2023-01-25T23:54:08.899Z,61.05
2023-01-25T23:59:10.970Z,60.64
